sensor_id;sensor_type;location;lat;lon;timestamp;pressure;altitude;pressure_sealevel;temperature;humidity
58785;BME280;44557;51.862;19.378;2022-09-13T00:00:54;99106.91;;;11.74;73.20
58785;BME280;44557;51.862;19.378;2022-09-13T00:02:05;99100.58;;;11.69;73.21
58785;BME280;44557;51.862;19.378;2022-09-13T00:03:09;99103.13;;;11.67;73.29
58785;BME280;44557;51.862;19.378;2022-09-13T00:04:11;99101.52;;;11.69;73.40
58785;BME280;44557;51.862;19.378;2022-09-13T00:05:13;99099.27;;;11.70;73.22
58785;BME280;44557;51.862;19.378;2022-09-13T00:06:18;99099.45;;;11.72;73.10
58785;BME280;44557;51.862;19.378;2022-09-13T00:07:20;99099.58;;;11.61;73.48
58785;BME280;44557;51.862;19.378;2022-09-13T00:08:21;99098.75;;;11.59;73.42
58785;BME280;44557;51.862;19.378;2022-09-13T00:09:23;99097.19;;;11.56;73.65
58785;BME280;44557;51.862;19.378;2022-09-13T00:10:25;99098.79;;;11.60;73.42
58785;BME280;44557;51.862;19.378;2022-09-13T00:11:30;99101.02;;;11.59;73.60
58785;BME280;44557;51.862;19.378;2022-09-13T00:12:32;99098.06;;;11.57;73.60
58785;BME280;44557;51.862;19.378;2022-09-13T00:13:34;99098.45;;;11.66;73.32
58785;BME280;44557;51.862;19.378;2022-09-13T00:14:35;99098.11;;;11.68;72.93
58785;BME280;44557;51.862;19.378;2022-09-13T00:15:41;99099.95;;;11.63;73.12
58785;BME280;44557;51.862;19.378;2022-09-13T00:16:44;99103.02;;;11.66;73.08
58785;BME280;44557;51.862;19.378;2022-09-13T00:17:46;99097.60;;;11.64;73.10
58785;BME280;44557;51.862;19.378;2022-09-13T00:18:47;99098.41;;;11.67;72.93
58785;BME280;44557;51.862;19.378;2022-09-13T00:19:49;99098.98;;;11.68;72.89
58785;BME280;44557;51.862;19.378;2022-09-13T00:20:50;99102.33;;;11.73;72.52
58785;BME280;44557;51.862;19.378;2022-09-13T00:21:52;99102.51;;;11.77;72.59
58785;BME280;44557;51.862;19.378;2022-09-13T00:22:53;99103.64;;;11.75;72.72
58785;BME280;44557;51.862;19.378;2022-09-13T00:23:55;99101.29;;;11.70;72.54
58785;BME280;44557;51.862;19.378;2022-09-13T00:24:57;99105.25;;;11.64;72.90
58785;BME280;44557;51.862;19.378;2022-09-13T00:26:03;99100.42;;;11.64;72.78
58785;BME280;44557;51.862;19.378;2022-09-13T00:27:05;99104.27;;;11.62;72.93
58785;BME280;44557;51.862;19.378;2022-09-13T00:28:06;99102.66;;;11.61;73.11
58785;BME280;44557;51.862;19.378;2022-09-13T00:29:08;99103.64;;;11.59;73.20
58785;BME280;44557;51.862;19.378;2022-09-13T00:30:11;99098.95;;;11.61;72.89
58785;BME280;44557;51.862;19.378;2022-09-13T00:31:13;99102.95;;;11.56;73.12
58785;BME280;44557;51.862;19.378;2022-09-13T00:32:14;99095.84;;;11.56;73.47
58785;BME280;44557;51.862;19.378;2022-09-13T00:33:16;99094.50;;;11.49;73.54
58785;BME280;44557;51.862;19.378;2022-09-13T00:34:18;99097.09;;;11.52;73.60
58785;BME280;44557;51.862;19.378;2022-09-13T00:35:20;99094.48;;;11.49;73.43
58785;BME280;44557;51.862;19.378;2022-09-13T00:36:21;99092.58;;;11.48;73.76
58785;BME280;44557;51.862;19.378;2022-09-13T00:37:23;99091.36;;;11.50;73.80
58785;BME280;44557;51.862;19.378;2022-09-13T00:38:24;99094.61;;;11.57;73.47
58785;BME280;44557;51.862;19.378;2022-09-13T00:39:26;99095.57;;;11.58;73.53
58785;BME280;44557;51.862;19.378;2022-09-13T00:40:28;99096.42;;;11.57;73.58
58785;BME280;44557;51.862;19.378;2022-09-13T00:41:31;99095.79;;;11.61;73.36
58785;BME280;44557;51.862;19.378;2022-09-13T00:42:33;99096.98;;;11.61;73.27
58785;BME280;44557;51.862;19.378;2022-09-13T00:43:43;99094.46;;;11.62;73.19
58785;BME280;44557;51.862;19.378;2022-09-13T00:45:51;99096.81;;;11.64;73.11
58785;BME280;44557;51.862;19.378;2022-09-13T00:46:53;99096.81;;;11.64;72.93
58785;BME280;44557;51.862;19.378;2022-09-13T00:47:57;99096.62;;;11.63;72.93
58785;BME280;44557;51.862;19.378;2022-09-13T00:49:20;99096.35;;;11.58;73.15
58785;BME280;44557;51.862;19.378;2022-09-13T00:50:55;99091.91;;;11.50;73.49
58785;BME280;44557;51.862;19.378;2022-09-13T00:52:00;99090.31;;;11.52;73.23
58785;BME280;44557;51.862;19.378;2022-09-13T00:53:17;99090.23;;;11.59;73.12
58785;BME280;44557;51.862;19.378;2022-09-13T00:54:21;99089.52;;;11.59;73.11
58785;BME280;44557;51.862;19.378;2022-09-13T00:55:42;99087.91;;;11.67;72.80
58785;BME280;44557;51.862;19.378;2022-09-13T00:56:49;99084.66;;;11.57;73.17
58785;BME280;44557;51.862;19.378;2022-09-13T00:57:55;99083.95;;;11.53;73.30
58785;BME280;44557;51.862;19.378;2022-09-13T01:00:24;99077.84;;;11.44;73.33
58785;BME280;44557;51.862;19.378;2022-09-13T01:01:30;99079.23;;;11.47;73.49
58785;BME280;44557;51.862;19.378;2022-09-13T01:02:33;99075.96;;;11.52;73.32
58785;BME280;44557;51.862;19.378;2022-09-13T01:03:35;99075.91;;;11.53;73.50
58785;BME280;44557;51.862;19.378;2022-09-13T01:04:38;99077.86;;;11.55;73.16
58785;BME280;44557;51.862;19.378;2022-09-13T01:06:03;99075.65;;;11.52;73.41
58785;BME280;44557;51.862;19.378;2022-09-13T01:07:08;99076.52;;;11.52;73.28
58785;BME280;44557;51.862;19.378;2022-09-13T01:08:13;99069.92;;;11.53;73.56
58785;BME280;44557;51.862;19.378;2022-09-13T01:09:20;99069.55;;;11.54;73.06
58785;BME280;44557;51.862;19.378;2022-09-13T01:10:22;99071.33;;;11.49;73.21
58785;BME280;44557;51.862;19.378;2022-09-13T01:12:54;99070.67;;;11.51;73.15
58785;BME280;44557;51.862;19.378;2022-09-13T01:13:57;99071.05;;;11.51;73.54
58785;BME280;44557;51.862;19.378;2022-09-13T01:15:00;99068.31;;;11.45;73.73
58785;BME280;44557;51.862;19.378;2022-09-13T01:16:04;99069.30;;;11.40;73.89
58785;BME280;44557;51.862;19.378;2022-09-13T01:17:07;99065.66;;;11.33;73.89
58785;BME280;44557;51.862;19.378;2022-09-13T01:18:10;99067.08;;;11.36;74.02
58785;BME280;44557;51.862;19.378;2022-09-13T01:19:12;99066.50;;;11.42;73.56
58785;BME280;44557;51.862;19.378;2022-09-13T01:20:14;99067.80;;;11.43;73.56
58785;BME280;44557;51.862;19.378;2022-09-13T01:25:03;99064.94;;;11.39;74.01
58785;BME280;44557;51.862;19.378;2022-09-13T01:38:36;99060.67;;;11.09;74.55
58785;BME280;44557;51.862;19.378;2022-09-13T01:40:09;99061.17;;;11.06;74.77
58785;BME280;44557;51.862;19.378;2022-09-13T01:43:13;99068.16;;;11.12;74.85
58785;BME280;44557;51.862;19.378;2022-09-13T01:44:45;99067.45;;;11.05;75.00
58785;BME280;44557;51.862;19.378;2022-09-13T01:46:05;99066.84;;;10.97;75.29
58785;BME280;44557;51.862;19.378;2022-09-13T01:47:30;99065.48;;;11.00;75.24
58785;BME280;44557;51.862;19.378;2022-09-13T01:48:50;99064.67;;;10.92;75.32
58785;BME280;44557;51.862;19.378;2022-09-13T01:51:32;99059.54;;;10.98;75.09
58785;BME280;44557;51.862;19.378;2022-09-13T01:52:55;99058.37;;;10.98;74.39
58785;BME280;44557;51.862;19.378;2022-09-13T01:54:17;99056.99;;;10.90;74.75
58785;BME280;44557;51.862;19.378;2022-09-13T01:55:37;99058.19;;;10.98;74.74
58785;BME280;44557;51.862;19.378;2022-09-13T01:56:57;99057.52;;;11.02;74.54
58785;BME280;44557;51.862;19.378;2022-09-13T01:58:10;99054.74;;;10.98;74.92
58785;BME280;44557;51.862;19.378;2022-09-13T01:59:22;99054.39;;;11.00;74.99
58785;BME280;44557;51.862;19.378;2022-09-13T02:00:26;99048.66;;;10.96;75.16
58785;BME280;44557;51.862;19.378;2022-09-13T02:01:34;99050.88;;;10.94;75.42
58785;BME280;44557;51.862;19.378;2022-09-13T02:03:56;99053.73;;;10.95;75.44
58785;BME280;44557;51.862;19.378;2022-09-13T02:05:03;99050.37;;;10.96;75.28
58785;BME280;44557;51.862;19.378;2022-09-13T02:06:13;99047.25;;;10.91;74.96
58785;BME280;44557;51.862;19.378;2022-09-13T02:07:20;99044.25;;;10.97;74.90
58785;BME280;44557;51.862;19.378;2022-09-13T02:08:33;99042.95;;;10.86;75.12
58785;BME280;44557;51.862;19.378;2022-09-13T02:09:41;99040.23;;;10.84;75.03
58785;BME280;44557;51.862;19.378;2022-09-13T02:10:48;99041.29;;;10.76;74.86
58785;BME280;44557;51.862;19.378;2022-09-13T02:12:04;99036.64;;;10.82;74.85
58785;BME280;44557;51.862;19.378;2022-09-13T02:13:12;99038.94;;;10.68;75.00
58785;BME280;44557;51.862;19.378;2022-09-13T02:14:21;99036.85;;;10.72;74.82
58785;BME280;44557;51.862;19.378;2022-09-13T02:15:36;99034.36;;;10.79;74.32
58785;BME280;44557;51.862;19.378;2022-09-13T02:16:46;99037.66;;;10.76;74.47
58785;BME280;44557;51.862;19.378;2022-09-13T02:18:06;99035.44;;;10.72;74.47
58785;BME280;44557;51.862;19.378;2022-09-13T02:19:13;99034.91;;;10.79;74.13
58785;BME280;44557;51.862;19.378;2022-09-13T02:20:29;99037.04;;;10.76;74.43
58785;BME280;44557;51.862;19.378;2022-09-13T02:21:35;99032.89;;;10.81;74.12
58785;BME280;44557;51.862;19.378;2022-09-13T02:22:43;99030.72;;;10.70;74.60
58785;BME280;44557;51.862;19.378;2022-09-13T02:23:53;99031.34;;;10.54;75.26
58785;BME280;44557;51.862;19.378;2022-09-13T02:25:06;99032.84;;;10.48;75.28
58785;BME280;44557;51.862;19.378;2022-09-13T02:26:11;99028.80;;;10.50;75.38
58785;BME280;44557;51.862;19.378;2022-09-13T02:27:18;99027.65;;;10.57;75.46
58785;BME280;44557;51.862;19.378;2022-09-13T02:28:27;99029.23;;;10.58;75.28
58785;BME280;44557;51.862;19.378;2022-09-13T02:29:35;99024.77;;;10.71;74.91
58785;BME280;44557;51.862;19.378;2022-09-13T02:30:41;99023.34;;;10.70;74.85
58785;BME280;44557;51.862;19.378;2022-09-13T02:31:48;99020.02;;;10.70;74.80
58785;BME280;44557;51.862;19.378;2022-09-13T02:33:00;99025.79;;;10.70;74.67
58785;BME280;44557;51.862;19.378;2022-09-13T02:34:19;99023.80;;;10.70;75.13
58785;BME280;44557;51.862;19.378;2022-09-13T02:35:40;99021.54;;;10.68;74.74
58785;BME280;44557;51.862;19.378;2022-09-13T02:36:46;99017.10;;;10.66;75.27
58785;BME280;44557;51.862;19.378;2022-09-13T02:37:56;99019.53;;;10.66;75.53
58785;BME280;44557;51.862;19.378;2022-09-13T02:39:02;99019.33;;;10.76;74.94
58785;BME280;44557;51.862;19.378;2022-09-13T02:40:09;99014.68;;;10.76;75.11
58785;BME280;44557;51.862;19.378;2022-09-13T02:41:23;99013.31;;;10.81;75.11
58785;BME280;44557;51.862;19.378;2022-09-13T02:42:43;99012.80;;;10.74;75.26
58785;BME280;44557;51.862;19.378;2022-09-13T02:43:54;99012.35;;;10.62;75.54
58785;BME280;44557;51.862;19.378;2022-09-13T02:44:57;99012.06;;;10.60;76.02
58785;BME280;44557;51.862;19.378;2022-09-13T02:46:09;99010.38;;;10.65;75.61
58785;BME280;44557;51.862;19.378;2022-09-13T02:47:41;99011.04;;;10.57;75.89
58785;BME280;44557;51.862;19.378;2022-09-13T02:48:58;99011.77;;;10.58;76.08
58785;BME280;44557;51.862;19.378;2022-09-13T02:53:36;99008.25;;;10.47;76.87
58785;BME280;44557;51.862;19.378;2022-09-13T02:55:07;99008.23;;;10.49;76.96
58785;BME280;44557;51.862;19.378;2022-09-13T02:56:53;99007.27;;;10.39;77.28
58785;BME280;44557;51.862;19.378;2022-09-13T03:00:13;99001.20;;;10.36;77.02
58785;BME280;44557;51.862;19.378;2022-09-13T03:01:15;98999.03;;;10.34;77.72
58785;BME280;44557;51.862;19.378;2022-09-13T03:02:20;98998.42;;;10.38;77.60
58785;BME280;44557;51.862;19.378;2022-09-13T03:03:23;98996.48;;;10.33;77.97
58785;BME280;44557;51.862;19.378;2022-09-13T03:04:26;98995.60;;;10.38;77.82
58785;BME280;44557;51.862;19.378;2022-09-13T03:05:28;98994.13;;;10.36;77.80
58785;BME280;44557;51.862;19.378;2022-09-13T03:06:30;98990.39;;;10.41;77.49
58785;BME280;44557;51.862;19.378;2022-09-13T03:07:31;98989.77;;;10.32;78.32
58785;BME280;44557;51.862;19.378;2022-09-13T03:08:34;98994.27;;;10.35;78.46
58785;BME280;44557;51.862;19.378;2022-09-13T03:09:45;98987.65;;;10.38;77.97
58785;BME280;44557;51.862;19.378;2022-09-13T03:15:00;98987.80;;;10.41;78.50
58785;BME280;44557;51.862;19.378;2022-09-13T03:24:25;98982.45;;;10.31;78.79
58785;BME280;44557;51.862;19.378;2022-09-13T03:28:08;98982.84;;;10.44;78.24
58785;BME280;44557;51.862;19.378;2022-09-13T03:30:26;98979.54;;;10.35;78.81
58785;BME280;44557;51.862;19.378;2022-09-13T03:32:38;98981.81;;;10.37;78.70
58785;BME280;44557;51.862;19.378;2022-09-13T03:37:04;98982.08;;;10.32;78.65
58785;BME280;44557;51.862;19.378;2022-09-13T03:39:21;98981.94;;;10.24;78.88
58785;BME280;44557;51.862;19.378;2022-09-13T03:40:35;98978.81;;;10.22;79.10
58785;BME280;44557;51.862;19.378;2022-09-13T03:41:43;98979.65;;;10.27;78.89
58785;BME280;44557;51.862;19.378;2022-09-13T03:43:17;98975.30;;;10.23;79.02
58785;BME280;44557;51.862;19.378;2022-09-13T03:44:23;98978.61;;;10.23;79.20
58785;BME280;44557;51.862;19.378;2022-09-13T03:45:30;98975.03;;;10.28;79.23
58785;BME280;44557;51.862;19.378;2022-09-13T03:46:40;98973.85;;;10.31;78.85
58785;BME280;44557;51.862;19.378;2022-09-13T03:47:44;98973.32;;;10.31;78.52
58785;BME280;44557;51.862;19.378;2022-09-13T03:48:49;98973.02;;;10.32;78.79
58785;BME280;44557;51.862;19.378;2022-09-13T03:49:52;98969.73;;;10.33;78.80
58785;BME280;44557;51.862;19.378;2022-09-13T03:50:55;98971.70;;;10.26;78.67
58785;BME280;44557;51.862;19.378;2022-09-13T03:51:57;98968.77;;;10.26;78.60
58785;BME280;44557;51.862;19.378;2022-09-13T03:53:03;98970.96;;;10.22;78.91
58785;BME280;44557;51.862;19.378;2022-09-13T03:54:15;98969.55;;;10.23;78.81
58785;BME280;44557;51.862;19.378;2022-09-13T03:55:20;98968.40;;;10.24;78.77
58785;BME280;44557;51.862;19.378;2022-09-13T03:56:23;98973.60;;;10.27;78.64
58785;BME280;44557;51.862;19.378;2022-09-13T03:57:24;98971.71;;;10.21;78.92
58785;BME280;44557;51.862;19.378;2022-09-13T03:58:26;98970.13;;;10.29;78.76
58785;BME280;44557;51.862;19.378;2022-09-13T03:59:27;98970.40;;;10.31;78.73
58785;BME280;44557;51.862;19.378;2022-09-13T04:00:29;98974.77;;;10.35;78.35
58785;BME280;44557;51.862;19.378;2022-09-13T04:01:30;98969.73;;;10.24;78.46
58785;BME280;44557;51.862;19.378;2022-09-13T04:02:32;98971.34;;;10.22;79.25
58785;BME280;44557;51.862;19.378;2022-09-13T04:03:33;98970.60;;;10.33;78.61
58785;BME280;44557;51.862;19.378;2022-09-13T04:04:36;98974.36;;;10.32;78.53
58785;BME280;44557;51.862;19.378;2022-09-13T04:05:37;98973.64;;;10.25;79.60
58785;BME280;44557;51.862;19.378;2022-09-13T04:06:39;98976.20;;;10.27;79.37
58785;BME280;44557;51.862;19.378;2022-09-13T04:07:40;98978.76;;;10.31;78.99
58785;BME280;44557;51.862;19.378;2022-09-13T04:08:42;98981.55;;;10.33;79.49
58785;BME280;44557;51.862;19.378;2022-09-13T04:10:05;98979.30;;;10.32;79.23
58785;BME280;44557;51.862;19.378;2022-09-13T04:11:07;98977.61;;;10.30;79.68
58785;BME280;44557;51.862;19.378;2022-09-13T04:12:09;98978.73;;;10.37;79.42
58785;BME280;44557;51.862;19.378;2022-09-13T04:13:11;98980.44;;;10.36;79.44
58785;BME280;44557;51.862;19.378;2022-09-13T04:14:13;98979.16;;;10.42;79.31
58785;BME280;44557;51.862;19.378;2022-09-13T04:15:16;98976.41;;;10.42;78.95
58785;BME280;44557;51.862;19.378;2022-09-13T04:16:17;98975.86;;;10.32;79.59
58785;BME280;44557;51.862;19.378;2022-09-13T04:17:19;98972.17;;;10.30;79.77
58785;BME280;44557;51.862;19.378;2022-09-13T04:18:20;98970.44;;;10.36;79.55
58785;BME280;44557;51.862;19.378;2022-09-13T04:19:23;98972.03;;;10.40;79.66
58785;BME280;44557;51.862;19.378;2022-09-13T04:20:25;98972.42;;;10.36;79.69
58785;BME280;44557;51.862;19.378;2022-09-13T04:21:27;98972.41;;;10.30;79.93
58785;BME280;44557;51.862;19.378;2022-09-13T04:22:28;98972.41;;;10.27;79.96
58785;BME280;44557;51.862;19.378;2022-09-13T04:23:30;98967.41;;;10.28;80.15
58785;BME280;44557;51.862;19.378;2022-09-13T04:24:31;98963.45;;;10.18;80.43
58785;BME280;44557;51.862;19.378;2022-09-13T04:25:36;98964.41;;;10.24;80.38
58785;BME280;44557;51.862;19.378;2022-09-13T04:26:38;98966.22;;;10.18;80.68
58785;BME280;44557;51.862;19.378;2022-09-13T04:27:39;98961.58;;;10.19;80.57
58785;BME280;44557;51.862;19.378;2022-09-13T04:28:41;98961.12;;;10.22;80.29
58785;BME280;44557;51.862;19.378;2022-09-13T04:29:42;98960.98;;;10.09;80.99
58785;BME280;44557;51.862;19.378;2022-09-13T04:30:48;98959.43;;;10.15;81.20
58785;BME280;44557;51.862;19.378;2022-09-13T04:31:51;98958.20;;;10.31;80.93
58785;BME280;44557;51.862;19.378;2022-09-13T04:32:53;98958.48;;;10.26;80.72
58785;BME280;44557;51.862;19.378;2022-09-13T04:33:59;98956.34;;;10.14;81.36
58785;BME280;44557;51.862;19.378;2022-09-13T04:35:01;98952.38;;;10.13;81.28
58785;BME280;44557;51.862;19.378;2022-09-13T04:36:02;98954.91;;;10.22;80.32
58785;BME280;44557;51.862;19.378;2022-09-13T04:37:04;98951.68;;;10.22;81.01
58785;BME280;44557;51.862;19.378;2022-09-13T04:38:06;98948.39;;;10.28;80.04
58785;BME280;44557;51.862;19.378;2022-09-13T04:39:09;98946.68;;;10.17;80.85
58785;BME280;44557;51.862;19.378;2022-09-13T04:40:11;98948.33;;;10.26;80.47
58785;BME280;44557;51.862;19.378;2022-09-13T04:41:13;98947.02;;;10.27;80.29
58785;BME280;44557;51.862;19.378;2022-09-13T04:42:17;98947.82;;;10.28;80.00
58785;BME280;44557;51.862;19.378;2022-09-13T04:43:20;98946.52;;;10.23;80.48
58785;BME280;44557;51.862;19.378;2022-09-13T04:44:22;98948.20;;;10.31;79.50
58785;BME280;44557;51.862;19.378;2022-09-13T04:45:24;98948.41;;;10.29;79.91
58785;BME280;44557;51.862;19.378;2022-09-13T04:46:26;98951.15;;;10.32;79.82
58785;BME280;44557;51.862;19.378;2022-09-13T04:47:28;98945.66;;;10.39;79.56
58785;BME280;44557;51.862;19.378;2022-09-13T04:48:30;98944.90;;;10.43;79.39
58785;BME280;44557;51.862;19.378;2022-09-13T04:49:32;98944.45;;;10.34;79.84
58785;BME280;44557;51.862;19.378;2022-09-13T04:50:34;98943.00;;;10.40;79.36
58785;BME280;44557;51.862;19.378;2022-09-13T04:51:35;98944.39;;;10.48;79.24
58785;BME280;44557;51.862;19.378;2022-09-13T04:52:37;98946.80;;;10.47;79.33
58785;BME280;44557;51.862;19.378;2022-09-13T04:53:38;98948.18;;;10.39;79.87
58785;BME280;44557;51.862;19.378;2022-09-13T04:54:40;98949.95;;;10.44;80.10
58785;BME280;44557;51.862;19.378;2022-09-13T04:55:41;98947.84;;;10.47;80.25
58785;BME280;44557;51.862;19.378;2022-09-13T04:56:43;98948.59;;;10.68;79.36
58785;BME280;44557;51.862;19.378;2022-09-13T04:57:45;98947.48;;;10.74;79.10
58785;BME280;44557;51.862;19.378;2022-09-13T04:58:47;98946.54;;;10.78;79.02
58785;BME280;44557;51.862;19.378;2022-09-13T04:59:49;98945.22;;;10.75;79.32
58785;BME280;44557;51.862;19.378;2022-09-13T05:00:50;98947.84;;;10.79;79.51
58785;BME280;44557;51.862;19.378;2022-09-13T05:01:57;98949.97;;;10.86;79.09
58785;BME280;44557;51.862;19.378;2022-09-13T05:02:58;98948.02;;;10.87;79.26
58785;BME280;44557;51.862;19.378;2022-09-13T05:04:00;98951.64;;;11.03;78.37
58785;BME280;44557;51.862;19.378;2022-09-13T05:05:02;98944.28;;;11.20;78.16
58785;BME280;44557;51.862;19.378;2022-09-13T05:06:05;98947.41;;;11.63;76.71
58785;BME280;44557;51.862;19.378;2022-09-13T05:07:07;98944.38;;;12.04;74.95
58785;BME280;44557;51.862;19.378;2022-09-13T05:08:09;98947.13;;;12.56;73.02
58785;BME280;44557;51.862;19.378;2022-09-13T05:09:13;98944.64;;;12.82;71.84
58785;BME280;44557;51.862;19.378;2022-09-13T05:10:15;98943.13;;;13.28;70.20
58785;BME280;44557;51.862;19.378;2022-09-13T05:11:16;98940.08;;;13.87;68.15
58785;BME280;44557;51.862;19.378;2022-09-13T05:12:18;98937.33;;;14.03;67.24
58785;BME280;44557;51.862;19.378;2022-09-13T05:13:20;98937.26;;;14.11;66.96
58785;BME280;44557;51.862;19.378;2022-09-13T05:14:21;98938.38;;;14.26;66.25
58785;BME280;44557;51.862;19.378;2022-09-13T05:15:23;98936.08;;;14.48;65.66
58785;BME280;44557;51.862;19.378;2022-09-13T05:16:27;98932.61;;;14.70;64.59
58785;BME280;44557;51.862;19.378;2022-09-13T05:17:29;98931.26;;;15.02;63.84
58785;BME280;44557;51.862;19.378;2022-09-13T05:18:35;98929.83;;;15.40;62.73
58785;BME280;44557;51.862;19.378;2022-09-13T05:19:37;98929.39;;;15.57;61.42
58785;BME280;44557;51.862;19.378;2022-09-13T05:20:39;98931.30;;;15.32;62.47
58785;BME280;44557;51.862;19.378;2022-09-13T05:21:41;98929.92;;;15.41;62.48
58785;BME280;44557;51.862;19.378;2022-09-13T05:22:42;98930.89;;;15.57;62.05
58785;BME280;44557;51.862;19.378;2022-09-13T05:23:47;98931.20;;;15.55;62.14
58785;BME280;44557;51.862;19.378;2022-09-13T05:24:49;98930.38;;;15.67;61.67
58785;BME280;44557;51.862;19.378;2022-09-13T05:25:55;98933.20;;;15.81;61.37
58785;BME280;44557;51.862;19.378;2022-09-13T05:26:57;98931.44;;;16.28;60.08
58785;BME280;44557;51.862;19.378;2022-09-13T05:27:59;98928.91;;;16.39;59.63
58785;BME280;44557;51.862;19.378;2022-09-13T05:29:01;98932.82;;;16.50;58.98
58785;BME280;44557;51.862;19.378;2022-09-13T05:30:04;98927.84;;;16.55;58.74
58785;BME280;44557;51.862;19.378;2022-09-13T05:31:11;98931.95;;;16.51;58.92
58785;BME280;44557;51.862;19.378;2022-09-13T05:32:14;98931.16;;;16.88;58.19
58785;BME280;44557;51.862;19.378;2022-09-13T05:33:15;98929.58;;;17.43;56.58
58785;BME280;44557;51.862;19.378;2022-09-13T05:34:18;98933.80;;;17.70;55.67
58785;BME280;44557;51.862;19.378;2022-09-13T05:35:20;98934.81;;;17.47;56.18
58785;BME280;44557;51.862;19.378;2022-09-13T05:36:22;98935.64;;;17.67;55.62
58785;BME280;44557;51.862;19.378;2022-09-13T05:37:24;98933.73;;;17.67;55.53
58785;BME280;44557;51.862;19.378;2022-09-13T05:38:26;98934.15;;;17.79;55.09
58785;BME280;44557;51.862;19.378;2022-09-13T05:39:28;98931.46;;;17.92;54.96
58785;BME280;44557;51.862;19.378;2022-09-13T05:40:29;98929.48;;;18.36;53.89
58785;BME280;44557;51.862;19.378;2022-09-13T05:41:32;98932.57;;;18.38;53.81
58785;BME280;44557;51.862;19.378;2022-09-13T05:42:33;98927.89;;;18.88;52.67
58785;BME280;44557;51.862;19.378;2022-09-13T05:43:35;98931.83;;;18.44;53.71
58785;BME280;44557;51.862;19.378;2022-09-13T05:44:38;98929.77;;;18.92;52.66
58785;BME280;44557;51.862;19.378;2022-09-13T05:45:40;98933.98;;;19.02;52.46
58785;BME280;44557;51.862;19.378;2022-09-13T05:46:45;98936.24;;;19.33;51.71
58785;BME280;44557;51.862;19.378;2022-09-13T05:47:50;98937.12;;;19.08;52.31
58785;BME280;44557;51.862;19.378;2022-09-13T05:48:51;98939.45;;;19.40;51.73
58785;BME280;44557;51.862;19.378;2022-09-13T05:49:53;98936.50;;;19.61;51.68
58785;BME280;44557;51.862;19.378;2022-09-13T05:50:54;98935.00;;;19.75;50.85
58785;BME280;44557;51.862;19.378;2022-09-13T05:51:57;98936.64;;;19.90;50.47
58785;BME280;44557;51.862;19.378;2022-09-13T05:52:59;98933.75;;;20.16;50.22
58785;BME280;44557;51.862;19.378;2022-09-13T05:54:00;98938.00;;;20.26;50.09
58785;BME280;44557;51.862;19.378;2022-09-13T05:55:02;98938.47;;;20.09;50.51
58785;BME280;44557;51.862;19.378;2022-09-13T05:56:05;98941.77;;;20.12;50.54
58785;BME280;44557;51.862;19.378;2022-09-13T05:57:07;98941.20;;;20.01;51.14
58785;BME280;44557;51.862;19.378;2022-09-13T05:58:08;98939.56;;;20.17;50.90
58785;BME280;44557;51.862;19.378;2022-09-13T05:59:11;98939.26;;;20.34;50.50
58785;BME280;44557;51.862;19.378;2022-09-13T06:00:15;98934.58;;;20.07;51.35
58785;BME280;44557;51.862;19.378;2022-09-13T06:01:21;98935.19;;;20.39;50.72
58785;BME280;44557;51.862;19.378;2022-09-13T06:02:23;98932.51;;;20.74;50.08
58785;BME280;44557;51.862;19.378;2022-09-13T06:03:24;98933.08;;;20.58;50.46
58785;BME280;44557;51.862;19.378;2022-09-13T06:04:26;98929.61;;;20.32;50.95
58785;BME280;44557;51.862;19.378;2022-09-13T06:05:28;98928.79;;;20.38;50.92
58785;BME280;44557;51.862;19.378;2022-09-13T06:06:29;98927.41;;;20.29;51.35
58785;BME280;44557;51.862;19.378;2022-09-13T06:07:31;98928.09;;;20.21;51.50
58785;BME280;44557;51.862;19.378;2022-09-13T06:08:34;98929.26;;;20.16;51.71
58785;BME280;44557;51.862;19.378;2022-09-13T06:09:36;98928.10;;;19.95;52.50
58785;BME280;44557;51.862;19.378;2022-09-13T06:10:37;98927.41;;;19.81;52.80
58785;BME280;44557;51.862;19.378;2022-09-13T06:11:39;98925.48;;;19.61;53.62
58785;BME280;44557;51.862;19.378;2022-09-13T06:12:41;98927.55;;;19.34;54.39
58785;BME280;44557;51.862;19.378;2022-09-13T06:13:42;98925.63;;;19.42;54.65
58785;BME280;44557;51.862;19.378;2022-09-13T06:14:44;98924.14;;;19.23;55.24
58785;BME280;44557;51.862;19.378;2022-09-13T06:15:45;98925.95;;;19.16;55.79
58785;BME280;44557;51.862;19.378;2022-09-13T06:16:47;98920.05;;;19.40;55.42
58785;BME280;44557;51.862;19.378;2022-09-13T06:17:48;98922.64;;;19.30;55.55
58785;BME280;44557;51.862;19.378;2022-09-13T06:18:50;98919.92;;;19.23;55.80
58785;BME280;44557;51.862;19.378;2022-09-13T06:19:52;98919.42;;;18.98;56.66
58785;BME280;44557;51.862;19.378;2022-09-13T06:20:57;98917.13;;;19.38;55.88
58785;BME280;44557;51.862;19.378;2022-09-13T06:22:00;98917.83;;;19.23;56.45
58785;BME280;44557;51.862;19.378;2022-09-13T06:23:01;98915.98;;;19.42;56.03
58785;BME280;44557;51.862;19.378;2022-09-13T06:24:03;98908.55;;;19.56;55.57
58785;BME280;44557;51.862;19.378;2022-09-13T06:25:08;98912.88;;;19.00;57.08
58785;BME280;44557;51.862;19.378;2022-09-13T06:26:11;98909.50;;;19.25;56.81
58785;BME280;44557;51.862;19.378;2022-09-13T06:27:13;98911.33;;;19.50;56.37
58785;BME280;44557;51.862;19.378;2022-09-13T06:28:15;98908.48;;;19.33;56.69
58785;BME280;44557;51.862;19.378;2022-09-13T06:29:16;98907.25;;;19.45;56.55
58785;BME280;44557;51.862;19.378;2022-09-13T06:30:18;98909.89;;;19.58;56.21
58785;BME280;44557;51.862;19.378;2022-09-13T06:31:21;98906.81;;;19.73;56.03
58785;BME280;44557;51.862;19.378;2022-09-13T06:32:24;98904.59;;;20.02;55.20
58785;BME280;44557;51.862;19.378;2022-09-13T06:33:26;98903.85;;;19.98;55.52
58785;BME280;44557;51.862;19.378;2022-09-13T06:34:28;98903.30;;;19.91;55.82